sensor_id;sensor_type;location;lat;lon;timestamp;P1;durP1;ratioP1;P2;durP2;ratioP2
47958;SDS011;33718;50.910;-1.514;2023-05-07T00:01:26;74.80;;;16.10;;
47958;SDS011;33718;50.910;-1.514;2023-05-07T00:03:46;59.70;;;16.67;;
47958;SDS011;33718;50.910;-1.514;2023-05-07T00:05:48;68.47;;;15.95;;
47958;SDS011;33718;50.910;-1.514;2023-05-07T00:07:53;63.40;;;15.65;;
47958;SDS011;33718;50.910;-1.514;2023-05-07T00:09:54;67.40;;;16.17;;
47958;SDS011;33718;50.910;-1.514;2023-05-07T00:11:59;62.10;;;15.13;;
47958;SDS011;33718;50.910;-1.514;2023-05-07T00:14:03;66.80;;;11.90;;
47958;SDS011;33718;50.910;-1.514;2023-05-07T00:16:05;67.35;;;13.82;;
47958;SDS011;33718;50.910;-1.514;2023-05-07T00:18:10;76.57;;;15.05;;
47958;SDS011;33718;50.910;-1.514;2023-05-07T00:20:14;59.00;;;13.43;;
47958;SDS011;33718;50.910;-1.514;2023-05-07T00:22:19;69.97;;;14.77;;
47958;SDS011;33718;50.910;-1.514;2023-05-07T00:24:25;75.57;;;14.18;;
47958;SDS011;33718;50.910;-1.514;2023-05-07T00:26:29;64.32;;;14.45;;
47958;SDS011;33718;50.910;-1.514;2023-05-07T00:28:34;78.30;;;13.40;;
47958;SDS011;33718;50.910;-1.514;2023-05-07T00:30:35;68.10;;;13.43;;
47958;SDS011;33718;50.910;-1.514;2023-05-07T00:32:37;80.35;;;15.48;;
47958;SDS011;33718;50.910;-1.514;2023-05-07T00:34:42;90.63;;;13.32;;
47958;SDS011;33718;50.910;-1.514;2023-05-07T00:36:44;92.30;;;14.95;;
47958;SDS011;33718;50.910;-1.514;2023-05-07T00:38:45;82.43;;;14.73;;
47958;SDS011;33718;50.910;-1.514;2023-05-07T00:40:47;104.30;;;14.63;;
47958;SDS011;33718;50.910;-1.514;2023-05-07T00:42:51;99.60;;;15.98;;
47958;SDS011;33718;50.910;-1.514;2023-05-07T00:45:02;120.25;;;14.98;;
47958;SDS011;33718;50.910;-1.514;2023-05-07T00:47:07;85.55;;;14.38;;
47958;SDS011;33718;50.910;-1.514;2023-05-07T00:49:10;88.55;;;14.38;;
47958;SDS011;33718;50.910;-1.514;2023-05-07T00:51:17;81.28;;;13.95;;
47958;SDS011;33718;50.910;-1.514;2023-05-07T00:53:21;90.28;;;13.38;;
47958;SDS011;33718;50.910;-1.514;2023-05-07T00:55:23;95.53;;;14.45;;
47958;SDS011;33718;50.910;-1.514;2023-05-07T00:57:26;107.95;;;17.15;;
47958;SDS011;33718;50.910;-1.514;2023-05-07T00:59:28;75.15;;;12.43;;
47958;SDS011;33718;50.910;-1.514;2023-05-07T01:01:48;82.70;;;12.93;;
47958;SDS011;33718;50.910;-1.514;2023-05-07T01:03:53;60.92;;;12.88;;
47958;SDS011;33718;50.910;-1.514;2023-05-07T01:05:57;79.43;;;12.90;;
47958;SDS011;33718;50.910;-1.514;2023-05-07T01:08:03;69.82;;;13.25;;
47958;SDS011;33718;50.910;-1.514;2023-05-07T01:10:07;69.40;;;12.93;;
47958;SDS011;33718;50.910;-1.514;2023-05-07T01:12:10;61.30;;;13.07;;
47958;SDS011;33718;50.910;-1.514;2023-05-07T01:14:12;60.13;;;13.32;;
47958;SDS011;33718;50.910;-1.514;2023-05-07T01:16:13;45.67;;;13.23;;
47958;SDS011;33718;50.910;-1.514;2023-05-07T01:18:15;60.42;;;13.23;;
47958;SDS011;33718;50.910;-1.514;2023-05-07T01:20:19;54.20;;;13.63;;
47958;SDS011;33718;50.910;-1.514;2023-05-07T01:24:25;56.85;;;13.48;;
47958;SDS011;33718;50.910;-1.514;2023-05-07T01:26:29;59.65;;;13.63;;
47958;SDS011;33718;50.910;-1.514;2023-05-07T01:28:50;58.38;;;13.18;;
47958;SDS011;33718;50.910;-1.514;2023-05-07T01:31:01;52.33;;;13.27;;
47958;SDS011;33718;50.910;-1.514;2023-05-07T01:33:07;61.60;;;14.20;;
47958;SDS011;33718;50.910;-1.514;2023-05-07T01:35:10;60.13;;;13.48;;
47958;SDS011;33718;50.910;-1.514;2023-05-07T01:37:14;45.92;;;13.27;;
47958;SDS011;33718;50.910;-1.514;2023-05-07T01:39:24;57.83;;;14.88;;
47958;SDS011;33718;50.910;-1.514;2023-05-07T01:41:31;48.80;;;12.40;;
47958;SDS011;33718;50.910;-1.514;2023-05-07T01:43:33;56.40;;;15.20;;
47958;SDS011;33718;50.910;-1.514;2023-05-07T01:45:40;61.47;;;15.95;;
47958;SDS011;33718;50.910;-1.514;2023-05-07T01:47:45;61.78;;;15.48;;
47958;SDS011;33718;50.910;-1.514;2023-05-07T01:49:48;61.65;;;15.77;;
47958;SDS011;33718;50.910;-1.514;2023-05-07T01:51:53;55.55;;;15.15;;
47958;SDS011;33718;50.910;-1.514;2023-05-07T01:53:55;59.80;;;14.73;;
47958;SDS011;33718;50.910;-1.514;2023-05-07T01:58:04;75.80;;;16.45;;
47958;SDS011;33718;50.910;-1.514;2023-05-07T02:00:24;63.83;;;14.48;;
47958;SDS011;33718;50.910;-1.514;2023-05-07T02:02:26;57.67;;;15.18;;
47958;SDS011;33718;50.910;-1.514;2023-05-07T02:04:31;71.38;;;16.05;;
47958;SDS011;33718;50.910;-1.514;2023-05-07T02:06:34;49.03;;;13.43;;
47958;SDS011;33718;50.910;-1.514;2023-05-07T02:08:43;61.63;;;15.60;;
47958;SDS011;33718;50.910;-1.514;2023-05-07T02:10:49;47.25;;;14.25;;
47958;SDS011;33718;50.910;-1.514;2023-05-07T02:12:55;43.35;;;14.05;;
47958;SDS011;33718;50.910;-1.514;2023-05-07T02:14:59;61.30;;;15.48;;
47958;SDS011;33718;50.910;-1.514;2023-05-07T02:17:01;66.93;;;15.07;;
47958;SDS011;33718;50.910;-1.514;2023-05-07T02:19:07;49.88;;;12.88;;
47958;SDS011;33718;50.910;-1.514;2023-05-07T02:21:27;64.50;;;14.57;;
47958;SDS011;33718;50.910;-1.514;2023-05-07T02:23:31;68.07;;;14.32;;
47958;SDS011;33718;50.910;-1.514;2023-05-07T02:25:36;54.65;;;13.52;;
47958;SDS011;33718;50.910;-1.514;2023-05-07T02:27:40;57.35;;;13.68;;
47958;SDS011;33718;50.910;-1.514;2023-05-07T02:29:45;61.03;;;14.02;;
47958;SDS011;33718;50.910;-1.514;2023-05-07T02:31:50;59.47;;;13.45;;
47958;SDS011;33718;50.910;-1.514;2023-05-07T02:34:00;51.03;;;12.13;;
47958;SDS011;33718;50.910;-1.514;2023-05-07T02:36:06;73.15;;;15.05;;
47958;SDS011;33718;50.910;-1.514;2023-05-07T02:38:08;57.08;;;14.32;;
47958;SDS011;33718;50.910;-1.514;2023-05-07T02:40:16;55.53;;;14.15;;
47958;SDS011;33718;50.910;-1.514;2023-05-07T02:42:25;56.33;;;13.52;;
47958;SDS011;33718;50.910;-1.514;2023-05-07T02:44:29;57.95;;;13.02;;
47958;SDS011;33718;50.910;-1.514;2023-05-07T02:46:36;54.17;;;13.25;;
47958;SDS011;33718;50.910;-1.514;2023-05-07T02:48:39;51.87;;;12.50;;
47958;SDS011;33718;50.910;-1.514;2023-05-07T02:50:42;52.28;;;12.85;;
47958;SDS011;33718;50.910;-1.514;2023-05-07T02:52:44;60.05;;;13.52;;
47958;SDS011;33718;50.910;-1.514;2023-05-07T02:54:46;51.78;;;13.40;;
47958;SDS011;33718;50.910;-1.514;2023-05-07T02:56:49;50.55;;;13.38;;
47958;SDS011;33718;50.910;-1.514;2023-05-07T02:58:55;53.13;;;14.02;;
47958;SDS011;33718;50.910;-1.514;2023-05-07T03:00:58;46.20;;;13.43;;
47958;SDS011;33718;50.910;-1.514;2023-05-07T03:03:01;46.97;;;12.97;;
47958;SDS011;33718;50.910;-1.514;2023-05-07T03:05:05;53.50;;;13.50;;
47958;SDS011;33718;50.910;-1.514;2023-05-07T03:07:09;48.40;;;14.18;;
47958;SDS011;33718;50.910;-1.514;2023-05-07T03:09:17;48.63;;;14.48;;
47958;SDS011;33718;50.910;-1.514;2023-05-07T03:11:21;48.60;;;13.82;;
47958;SDS011;33718;50.910;-1.514;2023-05-07T03:13:23;50.03;;;13.77;;
47958;SDS011;33718;50.910;-1.514;2023-05-07T03:15:25;46.17;;;14.23;;
47958;SDS011;33718;50.910;-1.514;2023-05-07T03:17:46;57.50;;;15.02;;
47958;SDS011;33718;50.910;-1.514;2023-05-07T03:19:48;57.67;;;15.77;;
47958;SDS011;33718;50.910;-1.514;2023-05-07T03:21:53;55.67;;;14.73;;
47958;SDS011;33718;50.910;-1.514;2023-05-07T03:23:55;50.47;;;15.85;;
47958;SDS011;33718;50.910;-1.514;2023-05-07T03:25:57;46.55;;;15.27;;
47958;SDS011;33718;50.910;-1.514;2023-05-07T03:28:01;55.03;;;17.25;;
47958;SDS011;33718;50.910;-1.514;2023-05-07T03:30:06;56.08;;;17.73;;
47958;SDS011;33718;50.910;-1.514;2023-05-07T03:32:12;54.92;;;16.90;;
47958;SDS011;33718;50.910;-1.514;2023-05-07T03:34:13;50.40;;;16.08;;
47958;SDS011;33718;50.910;-1.514;2023-05-07T03:36:14;56.35;;;19.10;;
47958;SDS011;33718;50.910;-1.514;2023-05-07T03:38:16;52.63;;;18.20;;
47958;SDS011;33718;50.910;-1.514;2023-05-07T03:40:18;57.03;;;19.25;;
47958;SDS011;33718;50.910;-1.514;2023-05-07T03:42:24;54.90;;;19.08;;
47958;SDS011;33718;50.910;-1.514;2023-05-07T03:44:46;61.03;;;19.17;;
47958;SDS011;33718;50.910;-1.514;2023-05-07T03:46:49;47.72;;;19.60;;
47958;SDS011;33718;50.910;-1.514;2023-05-07T03:48:52;59.35;;;19.00;;
47958;SDS011;33718;50.910;-1.514;2023-05-07T03:50:55;58.35;;;19.83;;
47958;SDS011;33718;50.910;-1.514;2023-05-07T03:53:02;54.92;;;21.45;;
47958;SDS011;33718;50.910;-1.514;2023-05-07T03:55:05;54.40;;;20.98;;
47958;SDS011;33718;50.910;-1.514;2023-05-07T03:57:07;64.00;;;21.33;;
47958;SDS011;33718;50.910;-1.514;2023-05-07T03:59:09;55.50;;;20.63;;
47958;SDS011;33718;50.910;-1.514;2023-05-07T04:01:10;53.30;;;20.67;;
47958;SDS011;33718;50.910;-1.514;2023-05-07T04:03:12;58.65;;;20.45;;
47958;SDS011;33718;50.910;-1.514;2023-05-07T04:05:17;55.22;;;21.15;;
47958;SDS011;33718;50.910;-1.514;2023-05-07T04:07:21;61.03;;;22.42;;
47958;SDS011;33718;50.910;-1.514;2023-05-07T04:09:23;56.90;;;20.38;;
47958;SDS011;33718;50.910;-1.514;2023-05-07T04:11:24;54.75;;;20.13;;
47958;SDS011;33718;50.910;-1.514;2023-05-07T04:13:26;54.35;;;20.27;;
47958;SDS011;33718;50.910;-1.514;2023-05-07T04:17:34;46.25;;;20.63;;
47958;SDS011;33718;50.910;-1.514;2023-05-07T04:19:36;40.30;;;19.90;;
47958;SDS011;33718;50.910;-1.514;2023-05-07T04:21:40;51.78;;;21.23;;
47958;SDS011;33718;50.910;-1.514;2023-05-07T04:23:42;47.63;;;20.38;;
47958;SDS011;33718;50.910;-1.514;2023-05-07T04:25:44;43.78;;;19.92;;
47958;SDS011;33718;50.910;-1.514;2023-05-07T04:27:46;45.42;;;20.45;;
47958;SDS011;33718;50.910;-1.514;2023-05-07T04:29:48;45.47;;;19.50;;
47958;SDS011;33718;50.910;-1.514;2023-05-07T04:31:54;46.50;;;19.58;;
47958;SDS011;33718;50.910;-1.514;2023-05-07T04:34:01;43.17;;;19.50;;
47958;SDS011;33718;50.910;-1.514;2023-05-07T04:36:06;45.05;;;20.27;;
47958;SDS011;33718;50.910;-1.514;2023-05-07T04:38:08;44.53;;;20.52;;
47958;SDS011;33718;50.910;-1.514;2023-05-07T04:40:13;48.03;;;21.00;;
47958;SDS011;33718;50.910;-1.514;2023-05-07T04:42:15;48.08;;;20.50;;
47958;SDS011;33718;50.910;-1.514;2023-05-07T04:44:16;45.38;;;20.30;;
47958;SDS011;33718;50.910;-1.514;2023-05-07T04:46:18;41.28;;;20.33;;
47958;SDS011;33718;50.910;-1.514;2023-05-07T04:48:23;41.90;;;19.13;;
47958;SDS011;33718;50.910;-1.514;2023-05-07T04:50:24;55.65;;;21.77;;
47958;SDS011;33718;50.910;-1.514;2023-05-07T04:52:45;44.65;;;20.60;;
47958;SDS011;33718;50.910;-1.514;2023-05-07T04:54:49;48.35;;;20.48;;
47958;SDS011;33718;50.910;-1.514;2023-05-07T04:56:51;40.17;;;19.80;;
47958;SDS011;33718;50.910;-1.514;2023-05-07T04:58:55;42.67;;;19.58;;
47958;SDS011;33718;50.910;-1.514;2023-05-07T05:00:58;45.35;;;21.30;;
47958;SDS011;33718;50.910;-1.514;2023-05-07T05:03:02;51.13;;;20.25;;
47958;SDS011;33718;50.910;-1.514;2023-05-07T05:05:06;48.38;;;22.13;;
47958;SDS011;33718;50.910;-1.514;2023-05-07T05:07:11;39.70;;;19.35;;
47958;SDS011;33718;50.910;-1.514;2023-05-07T05:11:19;50.35;;;20.38;;
47958;SDS011;33718;50.910;-1.514;2023-05-07T05:13:22;40.75;;;19.17;;
47958;SDS011;33718;50.910;-1.514;2023-05-07T05:15:26;38.78;;;20.08;;
47958;SDS011;33718;50.910;-1.514;2023-05-07T05:17:30;42.35;;;18.67;;
47958;SDS011;33718;50.910;-1.514;2023-05-07T05:19:50;38.78;;;19.80;;
47958;SDS011;33718;50.910;-1.514;2023-05-07T05:21:54;39.03;;;18.50;;
47958;SDS011;33718;50.910;-1.514;2023-05-07T05:23:56;37.38;;;18.58;;
47958;SDS011;33718;50.910;-1.514;2023-05-07T05:25:57;31.42;;;17.77;;
47958;SDS011;33718;50.910;-1.514;2023-05-07T05:27:59;33.47;;;17.58;;
47958;SDS011;33718;50.910;-1.514;2023-05-07T05:30:19;30.25;;;16.77;;
47958;SDS011;33718;50.910;-1.514;2023-05-07T05:32:23;32.78;;;18.08;;
47958;SDS011;33718;50.910;-1.514;2023-05-07T05:34:27;30.27;;;16.83;;
47958;SDS011;33718;50.910;-1.514;2023-05-07T05:36:29;28.60;;;16.90;;
47958;SDS011;33718;50.910;-1.514;2023-05-07T05:38:34;34.15;;;17.70;;
47958;SDS011;33718;50.910;-1.514;2023-05-07T05:40:38;29.00;;;17.60;;
47958;SDS011;33718;50.910;-1.514;2023-05-07T05:42:43;33.72;;;19.00;;
47958;SDS011;33718;50.910;-1.514;2023-05-07T05:44:46;44.13;;;19.67;;
47958;SDS011;33718;50.910;-1.514;2023-05-07T05:46:53;38.47;;;22.45;;
47958;SDS011;33718;50.910;-1.514;2023-05-07T05:49:16;33.88;;;19.88;;
47958;SDS011;33718;50.910;-1.514;2023-05-07T05:51:18;38.97;;;22.83;;
47958;SDS011;33718;50.910;-1.514;2023-05-07T05:55:23;39.50;;;22.80;;
47958;SDS011;33718;50.910;-1.514;2023-05-07T05:57:25;46.67;;;23.65;;
47958;SDS011;33718;50.910;-1.514;2023-05-07T05:59:29;45.20;;;24.63;;
47958;SDS011;33718;50.910;-1.514;2023-05-07T06:01:33;51.10;;;25.92;;
47958;SDS011;33718;50.910;-1.514;2023-05-07T06:03:38;48.15;;;25.25;;
47958;SDS011;33718;50.910;-1.514;2023-05-07T06:05:40;45.08;;;26.10;;
47958;SDS011;33718;50.910;-1.514;2023-05-07T06:07:41;57.50;;;27.88;;
47958;SDS011;33718;50.910;-1.514;2023-05-07T06:09:43;51.58;;;27.55;;
47958;SDS011;33718;50.910;-1.514;2023-05-07T06:11:48;52.92;;;28.05;;
47958;SDS011;33718;50.910;-1.514;2023-05-07T06:13:49;57.65;;;27.20;;
47958;SDS011;33718;50.910;-1.514;2023-05-07T06:15:54;54.30;;;27.80;;
47958;SDS011;33718;50.910;-1.514;2023-05-07T06:17:55;52.30;;;26.77;;
47958;SDS011;33718;50.910;-1.514;2023-05-07T06:19:58;49.00;;;25.95;;
47958;SDS011;33718;50.910;-1.514;2023-05-07T06:22:03;51.05;;;26.48;;
47958;SDS011;33718;50.910;-1.514;2023-05-07T06:24:05;54.53;;;28.15;;
47958;SDS011;33718;50.910;-1.514;2023-05-07T06:26:10;51.17;;;27.05;;
47958;SDS011;33718;50.910;-1.514;2023-05-07T06:28:30;46.67;;;27.17;;
47958;SDS011;33718;50.910;-1.514;2023-05-07T06:30:39;40.58;;;25.08;;
47958;SDS011;33718;50.910;-1.514;2023-05-07T06:32:41;43.80;;;26.60;;
47958;SDS011;33718;50.910;-1.514;2023-05-07T06:34:43;46.20;;;27.52;;
47958;SDS011;33718;50.910;-1.514;2023-05-07T06:36:47;48.05;;;27.83;;
47958;SDS011;33718;50.910;-1.514;2023-05-07T06:38:48;42.90;;;26.25;;
47958;SDS011;33718;50.910;-1.514;2023-05-07T06:40:50;52.00;;;28.35;;
47958;SDS011;33718;50.910;-1.514;2023-05-07T06:42:51;48.38;;;28.23;;
47958;SDS011;33718;50.910;-1.514;2023-05-07T06:44:56;59.08;;;27.30;;
47958;SDS011;33718;50.910;-1.514;2023-05-07T06:47:00;45.17;;;26.20;;
47958;SDS011;33718;50.910;-1.514;2023-05-07T06:49:04;44.38;;;25.70;;
47958;SDS011;33718;50.910;-1.514;2023-05-07T06:51:06;46.08;;;26.38;;
47958;SDS011;33718;50.910;-1.514;2023-05-07T06:53:10;42.63;;;26.38;;
47958;SDS011;33718;50.910;-1.514;2023-05-07T06:55:12;43.15;;;25.00;;
47958;SDS011;33718;50.910;-1.514;2023-05-07T06:57:13;49.80;;;25.55;;
47958;SDS011;33718;50.910;-1.514;2023-05-07T06:59:15;37.90;;;22.92;;
47958;SDS011;33718;50.910;-1.514;2023-05-07T07:01:16;39.38;;;21.10;;
47958;SDS011;33718;50.910;-1.514;2023-05-07T07:03:18;44.15;;;22.67;;
47958;SDS011;33718;50.910;-1.514;2023-05-07T07:05:19;36.67;;;23.88;;
47958;SDS011;33718;50.910;-1.514;2023-05-07T07:07:39;47.97;;;22.27;;
47958;SDS011;33718;50.910;-1.514;2023-05-07T07:09:41;35.83;;;21.73;;
47958;SDS011;33718;50.910;-1.514;2023-05-07T07:13:46;33.85;;;20.48;;
47958;SDS011;33718;50.910;-1.514;2023-05-07T07:15:51;43.65;;;22.67;;
47958;SDS011;33718;50.910;-1.514;2023-05-07T07:17:52;48.70;;;24.55;;
47958;SDS011;33718;50.910;-1.514;2023-05-07T07:19:54;47.42;;;25.42;;
47958;SDS011;33718;50.910;-1.514;2023-05-07T07:21:58;43.55;;;24.70;;
47958;SDS011;33718;50.910;-1.514;2023-05-07T07:24:02;43.65;;;24.55;;
47958;SDS011;33718;50.910;-1.514;2023-05-07T07:26:04;38.20;;;23.65;;
47958;SDS011;33718;50.910;-1.514;2023-05-07T07:28:07;41.70;;;25.13;;
47958;SDS011;33718;50.910;-1.514;2023-05-07T07:30:11;38.35;;;23.90;;
47958;SDS011;33718;50.910;-1.514;2023-05-07T07:32:16;38.78;;;23.83;;
47958;SDS011;33718;50.910;-1.514;2023-05-07T07:34:20;46.47;;;23.63;;
47958;SDS011;33718;50.910;-1.514;2023-05-07T07:36:25;42.75;;;25.27;;
47958;SDS011;33718;50.910;-1.514;2023-05-07T07:38:45;43.40;;;23.17;;
47958;SDS011;33718;50.910;-1.514;2023-05-07T07:40:47;45.20;;;24.35;;
47958;SDS011;33718;50.910;-1.514;2023-05-07T07:42:51;32.17;;;21.98;;
47958;SDS011;33718;50.910;-1.514;2023-05-07T07:44:56;41.88;;;21.30;;
47958;SDS011;33718;50.910;-1.514;2023-05-07T07:46:58;34.63;;;20.42;;
47958;SDS011;33718;50.910;-1.514;2023-05-07T07:49:18;33.17;;;19.70;;
47958;SDS011;33718;50.910;-1.514;2023-05-07T07:51:19;31.52;;;19.20;;
47958;SDS011;33718;50.910;-1.514;2023-05-07T07:53:21;33.50;;;21.10;;
47958;SDS011;33718;50.910;-1.514;2023-05-07T07:55:23;40.92;;;22.05;;
47958;SDS011;33718;50.910;-1.514;2023-05-07T07:57:24;37.47;;;21.88;;
47958;SDS011;33718;50.910;-1.514;2023-05-07T07:59:29;39.10;;;22.95;;
47958;SDS011;33718;50.910;-1.514;2023-05-07T08:01:34;41.55;;;23.10;;
47958;SDS011;33718;50.910;-1.514;2023-05-07T08:03:35;37.95;;;21.83;;
47958;SDS011;33718;50.910;-1.514;2023-05-07T08:05:56;41.00;;;24.92;;
47958;SDS011;33718;50.910;-1.514;2023-05-07T08:10:02;39.30;;;22.60;;
47958;SDS011;33718;50.910;-1.514;2023-05-07T08:12:22;33.65;;;20.95;;
47958;SDS011;33718;50.910;-1.514;2023-05-07T08:14:23;36.33;;;23.35;;
47958;SDS011;33718;50.910;-1.514;2023-05-07T08:16:25;30.45;;;20.10;;
47958;SDS011;33718;50.910;-1.514;2023-05-07T08:18:29;36.05;;;22.17;;
47958;SDS011;33718;50.910;-1.514;2023-05-07T08:20:31;40.17;;;23.70;;
47958;SDS011;33718;50.910;-1.514;2023-05-07T08:22:51;36.33;;;22.48;;
47958;SDS011;33718;50.910;-1.514;2023-05-07T08:25:11;35.67;;;20.83;;
47958;SDS011;33718;50.910;-1.514;2023-05-07T08:27:15;35.72;;;19.85;;
47958;SDS011;33718;50.910;-1.514;2023-05-07T08:29:17;33.75;;;21.88;;
47958;SDS011;33718;50.910;-1.514;2023-05-07T08:31:21;27.83;;;18.90;;
47958;SDS011;33718;50.910;-1.514;2023-05-07T08:33:23;25.73;;;18.02;;
47958;SDS011;33718;50.910;-1.514;2023-05-07T08:35:27;23.90;;;16.90;;
47958;SDS011;33718;50.910;-1.514;2023-05-07T08:37:31;29.65;;;21.10;;
47958;SDS011;33718;50.910;-1.514;2023-05-07T08:39:35;30.15;;;21.45;;
47958;SDS011;33718;50.910;-1.514;2023-05-07T08:41:40;34.55;;;21.17;;
47958;SDS011;33718;50.910;-1.514;2023-05-07T08:43:46;32.22;;;21.00;;
47958;SDS011;33718;50.910;-1.514;2023-05-07T08:45:51;39.20;;;22.67;;
47958;SDS011;33718;50.910;-1.514;2023-05-07T08:47:55;33.78;;;21.85;;
47958;SDS011;33718;50.910;-1.514;2023-05-07T08:49:59;34.45;;;23.10;;
47958;SDS011;33718;50.910;-1.514;2023-05-07T08:52:01;32.50;;;20.80;;
47958;SDS011;33718;50.910;-1.514;2023-05-07T08:54:05;32.95;;;21.70;;
47958;SDS011;33718;50.910;-1.514;2023-05-07T08:56:12;27.83;;;20.40;;
47958;SDS011;33718;50.910;-1.514;2023-05-07T08:58:18;31.38;;;19.50;;
47958;SDS011;33718;50.910;-1.514;2023-05-07T09:00:27;28.77;;;20.88;;
47958;SDS011;33718;50.910;-1.514;2023-05-07T09:02:30;31.73;;;19.70;;
47958;SDS011;33718;50.910;-1.514;2023-05-07T09:04:52;29.05;;;21.15;;
47958;SDS011;33718;50.910;-1.514;2023-05-07T09:06:58;34.72;;;21.15;;
47958;SDS011;33718;50.910;-1.514;2023-05-07T09:09:10;31.17;;;20.33;;
47958;SDS011;33718;50.910;-1.514;2023-05-07T09:11:19;26.90;;;19.17;;
47958;SDS011;33718;50.910;-1.514;2023-05-07T09:13:25;29.38;;;20.30;;
47958;SDS011;33718;50.910;-1.514;2023-05-07T09:15:28;31.25;;;19.55;;
47958;SDS011;33718;50.910;-1.514;2023-05-07T09:17:31;26.35;;;18.02;;
47958;SDS011;33718;50.910;-1.514;2023-05-07T09:19:36;18.48;;;15.10;;
47958;SDS011;33718;50.910;-1.514;2023-05-07T09:21:41;19.75;;;15.63;;
47958;SDS011;33718;50.910;-1.514;2023-05-07T09:23:51;21.00;;;16.08;;
47958;SDS011;33718;50.910;-1.514;2023-05-07T09:25:59;19.40;;;15.27;;
47958;SDS011;33718;50.910;-1.514;2023-05-07T09:28:06;20.00;;;15.85;;
47958;SDS011;33718;50.910;-1.514;2023-05-07T09:30:12;24.17;;;14.88;;
47958;SDS011;33718;50.910;-1.514;2023-05-07T09:32:17;22.08;;;15.45;;
47958;SDS011;33718;50.910;-1.514;2023-05-07T09:34:22;17.73;;;13.98;;
47958;SDS011;33718;50.910;-1.514;2023-05-07T09:36:24;22.00;;;16.02;;
47958;SDS011;33718;50.910;-1.514;2023-05-07T09:38:32;18.90;;;14.82;;
47958;SDS011;33718;50.910;-1.514;2023-05-07T09:40:38;18.73;;;15.23;;
47958;SDS011;33718;50.910;-1.514;2023-05-07T09:42:42;20.67;;;16.15;;
47958;SDS011;33718;50.910;-1.514;2023-05-07T09:44:47;16.38;;;13.93;;
47958;SDS011;33718;50.910;-1.514;2023-05-07T09:46:53;25.35;;;15.00;;
47958;SDS011;33718;50.910;-1.514;2023-05-07T09:48:57;19.25;;;15.65;;
47958;SDS011;33718;50.910;-1.514;2023-05-07T09:51:01;20.13;;;13.90;;
47958;SDS011;33718;50.910;-1.514;2023-05-07T09:53:22;21.80;;;15.38;;
47958;SDS011;33718;50.910;-1.514;2023-05-07T09:55:27;21.77;;;13.95;;
47958;SDS011;33718;50.910;-1.514;2023-05-07T09:57:31;20.27;;;14.55;;
47958;SDS011;33718;50.910;-1.514;2023-05-07T09:59:33;18.10;;;13.68;;
47958;SDS011;33718;50.910;-1.514;2023-05-07T10:01:35;21.60;;;13.95;;
47958;SDS011;33718;50.910;-1.514;2023-05-07T10:03:40;17.17;;;13.75;;
47958;SDS011;33718;50.910;-1.514;2023-05-07T10:05:46;20.60;;;14.40;;
47958;SDS011;33718;50.910;-1.514;2023-05-07T10:07:51;14.80;;;13.13;;
47958;SDS011;33718;50.910;-1.514;2023-05-07T10:10:12;20.00;;;12.90;;
47958;SDS011;33718;50.910;-1.514;2023-05-07T10:12:14;17.83;;;11.38;;
47958;SDS011;33718;50.910;-1.514;2023-05-07T10:14:16;17.38;;;13.57;;
47958;SDS011;33718;50.910;-1.514;2023-05-07T10:16:18;16.20;;;11.63;;
47958;SDS011;33718;50.910;-1.514;2023-05-07T10:18:38;15.18;;;12.13;;
47958;SDS011;33718;50.910;-1.514;2023-05-07T10:20:44;19.13;;;12.55;;
47958;SDS011;33718;50.910;-1.514;2023-05-07T10:23:05;17.52;;;12.43;;
47958;SDS011;33718;50.910;-1.514;2023-05-07T10:25:16;14.05;;;12.23;;
47958;SDS011;33718;50.910;-1.514;2023-05-07T10:27:19;18.83;;;12.23;;
47958;SDS011;33718;50.910;-1.514;2023-05-07T10:29:53;20.05;;;12.65;;
47958;SDS011;33718;50.910;-1.514;2023-05-07T10:34:01;18.25;;;12.75;;
47958;SDS011;33718;50.910;-1.514;2023-05-07T10:36:06;13.00;;;10.00;;
47958;SDS011;33718;50.910;-1.514;2023-05-07T10:38:12;17.27;;;10.82;;
47958;SDS011;33718;50.910;-1.514;2023-05-07T10:40:16;16.60;;;11.25;;
47958;SDS011;33718;50.910;-1.514;2023-05-07T10:44:25;16.35;;;10.85;;
47958;SDS011;33718;50.910;-1.514;2023-05-07T10:46:30;14.27;;;9.63;;
47958;SDS011;33718;50.910;-1.514;2023-05-07T10:48:34;14.50;;;10.35;;
47958;SDS011;33718;50.910;-1.514;2023-05-07T10:50:43;13.43;;;8.32;;
47958;SDS011;33718;50.910;-1.514;2023-05-07T10:53:07;12.48;;;9.25;;
47958;SDS011;33718;50.910;-1.514;2023-05-07T10:59:36;12.60;;;9.10;;
47958;SDS011;33718;50.910;-1.514;2023-05-07T11:06:08;10.68;;;7.53;;
47958;SDS011;33718;50.910;-1.514;2023-05-07T11:08:14;15.73;;;8.32;;
47958;SDS011;33718;50.910;-1.514;2023-05-07T11:10:15;12.07;;;7.07;;
47958;SDS011;33718;50.910;-1.514;2023-05-07T11:12:17;11.77;;;6.38;;
47958;SDS011;33718;50.910;-1.514;2023-05-07T11:16:42;11.30;;;6.25;;
47958;SDS011;33718;50.910;-1.514;2023-05-07T11:18:51;13.43;;;6.35;;
47958;SDS011;33718;50.910;-1.514;2023-05-07T11:20:54;11.55;;;6.03;;
47958;SDS011;33718;50.910;-1.514;2023-05-07T11:22:56;7.00;;;5.90;;
47958;SDS011;33718;50.910;-1.514;2023-05-07T11:25:04;7.30;;;5.80;;
47958;SDS011;33718;50.910;-1.514;2023-05-07T11:27:06;8.40;;;5.68;;
47958;SDS011;33718;50.910;-1.514;2023-05-07T11:29:12;8.57;;;6.45;;
47958;SDS011;33718;50.910;-1.514;2023-05-07T11:31:20;11.27;;;6.07;;
47958;SDS011;33718;50.910;-1.514;2023-05-07T11:33:22;11.20;;;6.57;;
47958;SDS011;33718;50.910;-1.514;2023-05-07T11:35:42;8.68;;;5.75;;
47958;SDS011;33718;50.910;-1.514;2023-05-07T11:37:44;10.10;;;5.53;;
47958;SDS011;33718;50.910;-1.514;2023-05-07T11:39:48;10.60;;;5.50;;
47958;SDS011;33718;50.910;-1.514;2023-05-07T11:41:53;6.95;;;5.53;;
47958;SDS011;33718;50.910;-1.514;2023-05-07T11:43:55;7.90;;;5.82;;
47958;SDS011;33718;50.910;-1.514;2023-05-07T11:46:07;11.15;;;5.78;;
47958;SDS011;33718;50.910;-1.514;2023-05-07T11:48:09;9.07;;;5.45;;
47958;SDS011;33718;50.910;-1.514;2023-05-07T11:50:11;9.57;;;5.13;;
47958;SDS011;33718;50.910;-1.514;2023-05-07T11:52:13;9.98;;;6.55;;
47958;SDS011;33718;50.910;-1.514;2023-05-07T11:54:17;11.98;;;5.88;;
47958;SDS011;33718;50.910;-1.514;2023-05-07T11:56:21;8.90;;;5.30;;
47958;SDS011;33718;50.910;-1.514;2023-05-07T11:58:24;9.00;;;5.47;;
47958;SDS011;33718;50.910;-1.514;2023-05-07T12:00:25;8.32;;;5.05;;
47958;SDS011;33718;50.910;-1.514;2023-05-07T12:02:29;11.65;;;5.88;;
47958;SDS011;33718;50.910;-1.514;2023-05-07T12:04:38;8.10;;;4.80;;
47958;SDS011;33718;50.910;-1.514;2023-05-07T12:07:14;12.77;;;5.80;;
47958;SDS011;33718;50.910;-1.514;2023-05-07T12:09:34;13.07;;;4.63;;
47958;SDS011;33718;50.910;-1.514;2023-05-07T12:12:16;7.78;;;4.60;;
47958;SDS011;33718;50.910;-1.514;2023-05-07T12:14:44;10.45;;;4.70;;
47958;SDS011;33718;50.910;-1.514;2023-05-07T12:17:02;11.77;;;6.00;;
47958;SDS011;33718;50.910;-1.514;2023-05-07T12:19:32;10.35;;;4.65;;
47958;SDS011;33718;50.910;-1.514;2023-05-07T12:21:55;7.78;;;5.10;;
47958;SDS011;33718;50.910;-1.514;2023-05-07T12:24:27;8.50;;;4.55;;
47958;SDS011;33718;50.910;-1.514;2023-05-07T12:27:06;7.25;;;5.10;;
47958;SDS011;33718;50.910;-1.514;2023-05-07T12:29:48;9.98;;;4.35;;
47958;SDS011;33718;50.910;-1.514;2023-05-07T12:32:20;10.57;;;5.32;;
47958;SDS011;33718;50.910;-1.514;2023-05-07T12:34:59;7.65;;;4.10;;
47958;SDS011;33718;50.910;-1.514;2023-05-07T12:37:33;7.28;;;4.15;;
47958;SDS011;33718;50.910;-1.514;2023-05-07T12:40:04;6.75;;;3.80;;